Jiu Hua San — 9VBK2 — position and weather

sailwx.info

Track history (hours):
 
Tides and Currents Weather Stations Pressure Air Temp Water Temp Dewpoint Dewpoint Depression Visibility Wind Speed Wind Dir Waves Ship Positions

Jiu Hua San

Last reported at 2017-Apr-20 04:16 UTC. Time now 2017-Apr-29 05:40 UTC.
Position S 33°39' E 015°60'.
Warning: this ship's position is 9 days out of date.

Length 333 m; draft 20.6 m.

Type: Ship. MMSI: 565914000.

Date/timePositionNaut miles runAvg speedWind from/ knotsBaromVisibWave heightAir tempDewpointWater temp
2017-Apr-20 04:16S 33°39' E 015°60'312.6
2017-Apr-20 04:00S 33°37' E 015°57'1312.7
2017-Apr-20 02:58S 33°27' E 015°47'612.6
2017-Apr-20 02:30S 33°22' E 015°42'1412.5
2017-Apr-20 01:26S 33°12' E 015°32'912.5
2017-Apr-20 00:45S 33°05' E 015°26'312.3
2017-Apr-20 00:30S 33°03' E 015°23'612.3
2017-Apr-20 00:00S 32°58' E 015°19'612.4
2017-Apr-19 23:30S 32°53' E 015°15'  
Track history (hours):
 
Tides and Currents Weather Stations Pressure Air Temp Water Temp Dewpoint Dewpoint Depression Visibility Wind Speed Wind Dir Waves Ship Positions

Jiu Hua San

Last reported at 2017-Apr-20 04:16 UTC. Time now 2017-Apr-29 05:40 UTC.
Position S 33°39' E 015°60'.
Warning: this ship's position is 9 days out of date.

Length 333 m; draft 20.6 m.

Type: Ship. MMSI: 565914000.

Date/timePositionNaut miles runAvg speedWind from/ knotsBaromVisibWave heightAir tempDewpointWater temp
2017-Apr-20 04:16S 33°39' E 015°60'312.6
2017-Apr-20 04:00S 33°37' E 015°57'1312.7
2017-Apr-20 02:58S 33°27' E 015°47'612.6
2017-Apr-20 02:30S 33°22' E 015°42'1412.5
2017-Apr-20 01:26S 33°12' E 015°32'912.5
2017-Apr-20 00:45S 33°05' E 015°26'312.3
2017-Apr-20 00:30S 33°03' E 015°23'612.3
2017-Apr-20 00:00S 32°58' E 015°19'612.4
2017-Apr-19 23:30S 32°53' E 015°15'  

Dump ship's entire track history